Strona główna
METAR-TAF:

METAR-TAF

Lotnisko :

Port lotniczy Zaporoże

Zaporoże, Ukraina

Szerokość geograficzna: 47-52-02N, Długość geograficzna: 035-18-59E, wysokość: 114 m

Aktualna obserwacja pogody

Raport powstał 22 minut temu, godzina 02:00 UTC
Wiatr 6 kt od północno-północny zachód
Temperatura -2°C
Wilgotność 59%
Ciśnienie 1032 hPa
Widzialność 10 km lub więcej
Brak chmur poniżej 1500 m i brak chmur cumulonimbus

METAR: UKDE 060200Z 34003MPS CAVOK M02/M09 Q1032 R20L/090070 NOSIG

czas: 05:22 (02:22 UTC)

Prognoza

Raport powstał 12 godziny i 21 minut temu, godzina 14:01 UTC
Prognoza ważna od 05 godzina 15 UTC do 05 godzina 24 UTC
Wiatr 14 kt od północno-północny zachód
Widzialność 10 km lub więcej
Brak chmur poniżej 1500 m i brak chmur cumulonimbus

TAF: UKDE 051401Z 0515/0524 33007MPS CAVOK

Obserwacja i prognoza pogody dla ponad 4000 lotnisk (raport METAR i TAF).

Dostępne stacje oznaczono żółtymi i czerwonymi punktami na mapie.

Najedź kursorem aby zobaczyć nazwę stacji.

Kliknij aby zobaczyć obserwacje i prognozy pogody.

Aby zmienić mapę: kliknij na zielony przycisk z czarnym krzyżykiem, aby powiększyć; na zielony przycisk z myślnikiem, aby pomniejszyć; na zielone strzałki, aby przejść do map sąsiednich.


METAR-TAF: